sensor_id;sensor_type;location;lat;lon;timestamp;pressure;altitude;pressure_sealevel;temperature;humidity
22018;BME280;11173;51.050;7.108;2022-10-16T00:02:48;99053.88;;;12.80;71.13
22018;BME280;11173;51.050;7.108;2022-10-16T00:08:11;99077.66;;;12.84;71.31
22018;BME280;11173;51.050;7.108;2022-10-16T00:13:33;99083.81;;;12.79;71.07
22018;BME280;11173;51.050;7.108;2022-10-16T00:18:54;99090.00;;;12.74;71.31
22018;BME280;11173;51.050;7.108;2022-10-16T00:24:15;99095.09;;;12.63;70.88
22018;BME280;11173;51.050;7.108;2022-10-16T00:29:36;99108.06;;;12.57;70.91
22018;BME280;11173;51.050;7.108;2022-10-16T00:34:56;99101.47;;;12.50;71.02
22018;BME280;11173;51.050;7.108;2022-10-16T00:40:17;99096.44;;;12.45;71.19
22018;BME280;11173;51.050;7.108;2022-10-16T00:45:38;99088.84;;;12.33;71.26
22018;BME280;11173;51.050;7.108;2022-10-16T00:50:59;99085.16;;;12.23;70.91
22018;BME280;11173;51.050;7.108;2022-10-16T00:56:20;99084.59;;;12.16;71.02
22018;BME280;11173;51.050;7.108;2022-10-16T01:01:41;99084.47;;;12.06;70.85
22018;BME280;11173;51.050;7.108;2022-10-16T01:12:50;99077.84;;;11.74;71.41
22018;BME280;11173;51.050;7.108;2022-10-16T01:18:19;99098.91;;;11.76;71.82
22018;BME280;11173;51.050;7.108;2022-10-16T01:35:10;99109.19;;;11.66;71.78
22018;BME280;11173;51.050;7.108;2022-10-16T01:40:34;99088.25;;;11.58;72.17
22018;BME280;11173;51.050;7.108;2022-10-16T01:45:56;99090.28;;;11.57;72.15
22018;BME280;11173;51.050;7.108;2022-10-16T01:51:19;99103.34;;;11.60;72.27
22018;BME280;11173;51.050;7.108;2022-10-16T01:56:41;99111.63;;;11.64;72.44
22018;BME280;11173;51.050;7.108;2022-10-16T02:02:06;99111.50;;;11.67;72.38
22018;BME280;11173;51.050;7.108;2022-10-16T02:07:28;99106.38;;;11.66;72.78
22018;BME280;11173;51.050;7.108;2022-10-16T02:12:55;99110.75;;;11.80;72.80
22018;BME280;11173;51.050;7.108;2022-10-16T02:18:16;99118.84;;;11.90;73.07
22018;BME280;11173;51.050;7.108;2022-10-16T02:23:50;99112.25;;;11.97;72.77
22018;BME280;11173;51.050;7.108;2022-10-16T02:29:16;99117.06;;;12.09;72.74
22018;BME280;11173;51.050;7.108;2022-10-16T02:34:40;99124.38;;;12.20;72.93
22018;BME280;11173;51.050;7.108;2022-10-16T02:40:02;99131.66;;;12.30;72.81
22018;BME280;11173;51.050;7.108;2022-10-16T02:45:26;99128.63;;;12.37;72.77
22018;BME280;11173;51.050;7.108;2022-10-16T02:50:47;99139.16;;;12.46;72.73
22018;BME280;11173;51.050;7.108;2022-10-16T02:56:07;99129.41;;;12.50;72.54
22018;BME280;11173;51.050;7.108;2022-10-16T03:01:28;99124.94;;;12.53;72.25
22018;BME280;11173;51.050;7.108;2022-10-16T03:06:49;99136.13;;;12.53;72.25
22018;BME280;11173;51.050;7.108;2022-10-16T03:12:09;99127.28;;;12.54;72.19
22018;BME280;11173;51.050;7.108;2022-10-16T03:17:32;99143.19;;;12.58;72.10
22018;BME280;11173;51.050;7.108;2022-10-16T03:22:53;99102.59;;;12.53;71.30
22018;BME280;11173;51.050;7.108;2022-10-16T03:28:14;99099.72;;;12.44;70.75
22018;BME280;11173;51.050;7.108;2022-10-16T03:33:34;99105.59;;;12.33;71.07
22018;BME280;11173;51.050;7.108;2022-10-16T03:38:55;99120.44;;;12.17;71.16
22018;BME280;11173;51.050;7.108;2022-10-16T03:44:16;99108.50;;;12.04;71.23
22018;BME280;11173;51.050;7.108;2022-10-16T03:49:36;99115.06;;;11.97;71.72
22018;BME280;11173;51.050;7.108;2022-10-16T03:54:57;99106.22;;;11.86;72.10
22018;BME280;11173;51.050;7.108;2022-10-16T04:00:18;99125.19;;;11.91;72.48
22018;BME280;11173;51.050;7.108;2022-10-16T04:05:38;99161.38;;;11.94;72.45
22018;BME280;11173;51.050;7.108;2022-10-16T04:10:59;99149.66;;;12.00;72.75
22018;BME280;11173;51.050;7.108;2022-10-16T04:16:20;99159.94;;;12.03;72.33
22018;BME280;11173;51.050;7.108;2022-10-16T04:21:40;99148.69;;;12.06;72.75
22018;BME280;11173;51.050;7.108;2022-10-16T04:27:01;99158.75;;;12.17;72.58
22018;BME280;11173;51.050;7.108;2022-10-16T04:32:22;99165.03;;;12.21;72.64
22018;BME280;11173;51.050;7.108;2022-10-16T04:37:42;99177.53;;;12.29;72.01
22018;BME280;11173;51.050;7.108;2022-10-16T04:43:04;99179.91;;;12.30;71.84
22018;BME280;11173;51.050;7.108;2022-10-16T04:48:24;99168.25;;;12.19;71.60
22018;BME280;11173;51.050;7.108;2022-10-16T04:53:45;99181.19;;;12.13;71.43
22018;BME280;11173;51.050;7.108;2022-10-16T04:59:06;99180.94;;;12.07;71.55
22018;BME280;11173;51.050;7.108;2022-10-16T05:04:26;99191.19;;;11.98;71.72
22018;BME280;11173;51.050;7.108;2022-10-16T05:09:47;99188.28;;;11.88;71.52
22018;BME280;11173;51.050;7.108;2022-10-16T05:15:08;99187.00;;;11.77;72.02
22018;BME280;11173;51.050;7.108;2022-10-16T05:20:29;99198.25;;;11.73;71.67
22018;BME280;11173;51.050;7.108;2022-10-16T05:25:54;99218.31;;;11.68;72.03
22018;BME280;11173;51.050;7.108;2022-10-16T05:31:15;99214.47;;;11.62;72.47
22018;BME280;11173;51.050;7.108;2022-10-16T05:36:36;99224.34;;;11.66;72.91
22018;BME280;11173;51.050;7.108;2022-10-16T05:41:57;99232.50;;;11.73;72.90
22018;BME280;11173;51.050;7.108;2022-10-16T05:47:17;99216.22;;;11.72;73.06
22018;BME280;11173;51.050;7.108;2022-10-16T05:52:41;99242.75;;;11.93;73.20
22018;BME280;11173;51.050;7.108;2022-10-16T05:58:01;99247.63;;;12.05;73.07
22018;BME280;11173;51.050;7.108;2022-10-16T06:03:22;99255.47;;;12.10;72.50
22018;BME280;11173;51.050;7.108;2022-10-16T06:08:44;99275.59;;;12.18;72.69
22018;BME280;11173;51.050;7.108;2022-10-16T06:14:05;99273.25;;;12.17;72.31
22018;BME280;11173;51.050;7.108;2022-10-16T06:19:29;99283.63;;;12.16;71.82
22018;BME280;11173;51.050;7.108;2022-10-16T06:24:49;99286.53;;;12.12;72.11
22018;BME280;11173;51.050;7.108;2022-10-16T06:30:10;99287.38;;;12.09;72.66
22018;BME280;11173;51.050;7.108;2022-10-16T06:35:31;99284.94;;;12.11;72.92
22018;BME280;11173;51.050;7.108;2022-10-16T06:40:53;99296.00;;;12.15;73.02
22018;BME280;11173;51.050;7.108;2022-10-16T06:46:16;99295.25;;;12.14;73.17
22018;BME280;11173;51.050;7.108;2022-10-16T06:51:37;99327.38;;;12.36;73.88
22018;BME280;11173;51.050;7.108;2022-10-16T06:57:01;99334.81;;;12.55;73.97
22018;BME280;11173;51.050;7.108;2022-10-16T07:02:22;99335.84;;;12.78;74.22
22018;BME280;11173;51.050;7.108;2022-10-16T07:07:42;99347.50;;;13.02;73.80
22018;BME280;11173;51.050;7.108;2022-10-16T07:13:03;99352.00;;;13.25;73.79
22018;BME280;11173;51.050;7.108;2022-10-16T07:18:24;99356.94;;;13.46;73.46
22018;BME280;11173;51.050;7.108;2022-10-16T07:23:54;99370.16;;;13.71;73.53
22018;BME280;11173;51.050;7.108;2022-10-16T07:29:20;99379.44;;;13.94;73.40
22018;BME280;11173;51.050;7.108;2022-10-16T07:34:41;99392.53;;;14.10;72.53
22018;BME280;11173;51.050;7.108;2022-10-16T07:40:02;99402.13;;;14.22;72.27
22018;BME280;11173;51.050;7.108;2022-10-16T07:45:23;99404.94;;;14.22;71.48
22018;BME280;11173;51.050;7.108;2022-10-16T07:50:44;99395.00;;;14.08;71.43
22018;BME280;11173;51.050;7.108;2022-10-16T07:56:06;99417.41;;;14.08;70.83
22018;BME280;11173;51.050;7.108;2022-10-16T08:01:27;99431.41;;;13.95;70.59
22018;BME280;11173;51.050;7.108;2022-10-16T08:06:48;99436.25;;;13.82;70.61
22018;BME280;11173;51.050;7.108;2022-10-16T08:12:10;99443.47;;;13.66;70.98
22018;BME280;11173;51.050;7.108;2022-10-16T08:17:31;99457.00;;;13.55;71.35
22018;BME280;11173;51.050;7.108;2022-10-16T08:22:51;99458.44;;;13.47;71.52
22018;BME280;11173;51.050;7.108;2022-10-16T08:28:12;99463.38;;;13.43;71.67
22018;BME280;11173;51.050;7.108;2022-10-16T08:33:33;99466.16;;;13.43;71.97
22018;BME280;11173;51.050;7.108;2022-10-16T08:38:55;99461.44;;;13.27;72.21
22018;BME280;11173;51.050;7.108;2022-10-16T08:50:02;99489.22;;;13.47;72.42
22018;BME280;11173;51.050;7.108;2022-10-16T08:55:38;99498.97;;;13.55;72.34
22018;BME280;11173;51.050;7.108;2022-10-16T09:00:42;99512.44;;;13.60;72.30
22018;BME280;11173;51.050;7.108;2022-10-16T09:16:33;99519.00;;;13.83;72.25
22018;BME280;11173;51.050;7.108;2022-10-16T09:21:41;99515.66;;;13.88;72.24
22018;BME280;11173;51.050;7.108;2022-10-16T09:26:44;99513.75;;;13.98;72.31
22018;BME280;11173;51.050;7.108;2022-10-16T09:31:45;99499.28;;;13.99;72.25
22018;BME280;11173;51.050;7.108;2022-10-16T09:36:46;99515.66;;;14.14;71.79
22018;BME280;11173;51.050;7.108;2022-10-16T09:41:47;99508.38;;;14.16;71.52
22018;BME280;11173;51.050;7.108;2022-10-16T09:46:47;99523.69;;;14.37;71.72
22018;BME280;11173;51.050;7.108;2022-10-16T09:51:48;99519.44;;;14.45;71.38
22018;BME280;11173;51.050;7.108;2022-10-16T09:56:48;99526.56;;;14.59;70.79
22018;BME280;11173;51.050;7.108;2022-10-16T10:01:55;99521.84;;;14.69;70.46
22018;BME280;11173;51.050;7.108;2022-10-16T10:06:56;99529.09;;;14.79;70.58
22018;BME280;11173;51.050;7.108;2022-10-16T10:11:59;99523.50;;;14.92;70.17
22018;BME280;11173;51.050;7.108;2022-10-16T10:27:49;99520.97;;;15.29;69.80
22018;BME280;11173;51.050;7.108;2022-10-16T10:54:23;99532.47;;;16.19;67.20
22018;BME280;11173;51.050;7.108;2022-10-16T10:59:57;99537.16;;;16.22;66.51
22018;BME280;11173;51.050;7.108;2022-10-16T11:05:17;99541.53;;;16.23;67.01
22018;BME280;11173;51.050;7.108;2022-10-16T11:10:27;99523.88;;;16.23;67.54
22018;BME280;11173;51.050;7.108;2022-10-16T11:15:37;99540.78;;;16.32;67.80
22018;BME280;11173;51.050;7.108;2022-10-16T11:20:48;99536.94;;;16.48;66.96
22018;BME280;11173;51.050;7.108;2022-10-16T11:25:50;99532.06;;;16.48;66.86
22018;BME280;11173;51.050;7.108;2022-10-16T11:30:59;99550.38;;;16.62;66.70
22018;BME280;11173;51.050;7.108;2022-10-16T11:41:20;99551.41;;;16.78;67.61
22018;BME280;11173;51.050;7.108;2022-10-16T11:46:24;99552.06;;;16.91;67.09
22018;BME280;11173;51.050;7.108;2022-10-16T11:56:37;99560.34;;;17.41;68.44
22018;BME280;11173;51.050;7.108;2022-10-16T12:01:47;99560.03;;;17.66;67.27
22018;BME280;11173;51.050;7.108;2022-10-16T12:06:55;99569.53;;;17.87;66.96
22018;BME280;11173;51.050;7.108;2022-10-16T12:11:58;99559.97;;;17.94;65.47
22018;BME280;11173;51.050;7.108;2022-10-16T12:17:42;99563.41;;;17.98;65.74
22018;BME280;11173;51.050;7.108;2022-10-16T12:22:27;99584.03;;;18.04;64.80
22018;BME280;11173;51.050;7.108;2022-10-16T12:27:31;99570.41;;;18.12;65.24
22018;BME280;11173;51.050;7.108;2022-10-16T12:32:35;99568.81;;;18.20;64.96
22018;BME280;11173;51.050;7.108;2022-10-16T12:37:37;99561.16;;;18.21;64.45
22018;BME280;11173;51.050;7.108;2022-10-16T12:42:38;99560.47;;;18.35;64.62
22018;BME280;11173;51.050;7.108;2022-10-16T12:47:48;99553.53;;;18.45;64.41
22018;BME280;11173;51.050;7.108;2022-10-16T12:52:49;99543.66;;;18.41;63.48
22018;BME280;11173;51.050;7.108;2022-10-16T12:58:18;99538.53;;;18.30;64.87
22018;BME280;11173;51.050;7.108;2022-10-16T13:03:57;99553.94;;;18.20;64.11
22018;BME280;11173;51.050;7.108;2022-10-16T13:14:38;99557.19;;;18.27;64.20
22018;BME280;11173;51.050;7.108;2022-10-16T13:20:03;99548.38;;;18.44;63.40
22018;BME280;11173;51.050;7.108;2022-10-16T13:25:31;99567.56;;;18.55;62.81
22018;BME280;11173;51.050;7.108;2022-10-16T13:30:41;99562.50;;;18.68;63.91
22018;BME280;11173;51.050;7.108;2022-10-16T13:35:54;99568.75;;;18.72;62.85
22018;BME280;11173;51.050;7.108;2022-10-16T13:41:05;99570.66;;;18.66;62.86
22018;BME280;11173;51.050;7.108;2022-10-16T13:46:12;99573.41;;;18.51;62.55
22018;BME280;11173;51.050;7.108;2022-10-16T13:51:18;99577.06;;;18.33;63.33
22018;BME280;11173;51.050;7.108;2022-10-16T13:56:20;99578.19;;;18.26;59.93
22018;BME280;11173;51.050;7.108;2022-10-16T14:01:28;99574.59;;;18.17;59.74
22018;BME280;11173;51.050;7.108;2022-10-16T14:06:29;99552.72;;;18.02;61.30
22018;BME280;11173;51.050;7.108;2022-10-16T14:11:29;99561.69;;;17.92;61.10
22018;BME280;11173;51.050;7.108;2022-10-16T14:16:31;99565.00;;;17.81;61.26
22018;BME280;11173;51.050;7.108;2022-10-16T14:21:33;99584.59;;;17.75;62.26
22018;BME280;11173;51.050;7.108;2022-10-16T14:26:41;99579.13;;;17.72;61.79
22018;BME280;11173;51.050;7.108;2022-10-16T14:31:43;99571.28;;;17.76;59.95
22018;BME280;11173;51.050;7.108;2022-10-16T14:36:55;99566.56;;;17.82;59.73
22018;BME280;11173;51.050;7.108;2022-10-16T14:41:57;99552.78;;;17.84;58.33
22018;BME280;11173;51.050;7.108;2022-10-16T14:47:07;99550.44;;;17.82;60.00
22018;BME280;11173;51.050;7.108;2022-10-16T14:52:08;99559.50;;;17.86;57.47
22018;BME280;11173;51.050;7.108;2022-10-16T14:57:23;99554.38;;;17.85;59.75
22018;BME280;11173;51.050;7.108;2022-10-16T15:02:32;99566.28;;;17.80;60.73
22018;BME280;11173;51.050;7.108;2022-10-16T15:07:34;99571.91;;;17.80;60.93
22018;BME280;11173;51.050;7.108;2022-10-16T15:12:34;99569.69;;;17.84;61.84
22018;BME280;11173;51.050;7.108;2022-10-16T15:17:35;99580.97;;;17.84;60.73
22018;BME280;11173;51.050;7.108;2022-10-16T15:22:35;99575.66;;;17.77;61.20
22018;BME280;11173;51.050;7.108;2022-10-16T15:27:35;99575.03;;;17.73;60.17
22018;BME280;11173;51.050;7.108;2022-10-16T15:32:40;99588.19;;;17.66;60.38
22018;BME280;11173;51.050;7.108;2022-10-16T15:37:40;99574.72;;;17.52;60.93
22018;BME280;11173;51.050;7.108;2022-10-16T15:42:41;99590.69;;;17.46;61.42
22018;BME280;11173;51.050;7.108;2022-10-16T15:47:42;99583.97;;;17.34;62.11
22018;BME280;11173;51.050;7.108;2022-10-16T15:52:42;99574.72;;;17.24;61.30
22018;BME280;11173;51.050;7.108;2022-10-16T15:57:45;99573.94;;;17.15;61.82
22018;BME280;11173;51.050;7.108;2022-10-16T16:02:50;99574.72;;;17.06;61.84
22018;BME280;11173;51.050;7.108;2022-10-16T16:07:51;99563.94;;;16.95;61.92
22018;BME280;11173;51.050;7.108;2022-10-16T16:12:52;99553.13;;;16.84;62.33
22018;BME280;11173;51.050;7.108;2022-10-16T16:17:53;99559.22;;;16.74;62.47
22018;BME280;11173;51.050;7.108;2022-10-16T16:22:53;99551.03;;;16.57;62.66
22018;BME280;11173;51.050;7.108;2022-10-16T16:27:53;99557.06;;;16.46;63.00
22018;BME280;11173;51.050;7.108;2022-10-16T16:32:54;99557.06;;;16.37;63.31
22018;BME280;11173;51.050;7.108;2022-10-16T16:37:54;99566.41;;;16.34;63.96
22018;BME280;11173;51.050;7.108;2022-10-16T16:42:55;99573.88;;;16.28;63.89
22018;BME280;11173;51.050;7.108;2022-10-16T16:47:55;99581.34;;;16.22;64.23
22018;BME280;11173;51.050;7.108;2022-10-16T16:52:55;99580.50;;;16.12;64.03
22018;BME280;11173;51.050;7.108;2022-10-16T16:57:56;99580.28;;;15.97;64.66
22018;BME280;11173;51.050;7.108;2022-10-16T17:02:57;99587.59;;;15.95;64.63
22018;BME280;11173;51.050;7.108;2022-10-16T17:07:57;99586.63;;;15.88;65.29
22018;BME280;11173;51.050;7.108;2022-10-16T17:12:57;99583.63;;;15.83;65.21
22018;BME280;11173;51.050;7.108;2022-10-16T17:17:58;99582.06;;;15.82;65.33
22018;BME280;11173;51.050;7.108;2022-10-16T17:22:58;99598.13;;;15.81;65.77
22018;BME280;11173;51.050;7.108;2022-10-16T17:27:58;99606.09;;;15.83;65.62
22018;BME280;11173;51.050;7.108;2022-10-16T17:32:59;99612.50;;;15.83;65.75
22018;BME280;11173;51.050;7.108;2022-10-16T17:37:59;99613.28;;;15.84;66.05
22018;BME280;11173;51.050;7.108;2022-10-16T17:43:00;99605.63;;;15.84;66.33
22018;BME280;11173;51.050;7.108;2022-10-16T17:48:01;99622.63;;;15.81;66.64
22018;BME280;11173;51.050;7.108;2022-10-16T17:53:01;99639.66;;;15.86;66.39
22018;BME280;11173;51.050;7.108;2022-10-16T17:58:02;99630.78;;;15.88;66.44
22018;BME280;11173;51.050;7.108;2022-10-16T18:03:02;99643.91;;;15.91;66.38
22018;BME280;11173;51.050;7.108;2022-10-16T18:08:03;99632.34;;;15.89;66.30
22018;BME280;11173;51.050;7.108;2022-10-16T18:13:03;99643.91;;;15.91;66.67
22018;BME280;11173;51.050;7.108;2022-10-16T18:18:04;99628.44;;;15.86;66.66
22018;BME280;11173;51.050;7.108;2022-10-16T18:23:04;99644.72;;;15.92;66.54
22018;BME280;11173;51.050;7.108;2022-10-16T18:28:04;99643.72;;;15.85;66.33
22018;BME280;11173;51.050;7.108;2022-10-16T18:33:05;99646.06;;;15.87;66.43
22018;BME280;11173;51.050;7.108;2022-10-16T18:38:06;99633.84;;;15.81;66.63
22018;BME280;11173;51.050;7.108;2022-10-16T18:43:06;99637.13;;;15.79;66.61
22018;BME280;11173;51.050;7.108;2022-10-16T18:48:07;99636.09;;;15.73;67.26
22018;BME280;11173;51.050;7.108;2022-10-16T18:53:07;99632.50;;;15.73;67.51
22018;BME280;11173;51.050;7.108;2022-10-16T18:58:08;99641.06;;;15.69;67.93
22018;BME280;11173;51.050;7.108;2022-10-16T19:03:08;99631.84;;;15.68;68.28
22018;BME280;11173;51.050;7.108;2022-10-16T19:08:09;99642.19;;;15.71;68.09
22018;BME280;11173;51.050;7.108;2022-10-16T19:13:09;99649.38;;;15.73;68.05
22018;BME280;11173;51.050;7.108;2022-10-16T19:18:09;99659.81;;;15.72;67.89
22018;BME280;11173;51.050;7.108;2022-10-16T19:23:10;99662.84;;;15.78;68.43
22018;BME280;11173;51.050;7.108;2022-10-16T19:28:11;99663.19;;;15.80;67.75
22018;BME280;11173;51.050;7.108;2022-10-16T19:33:11;99662.59;;;15.85;67.46
22018;BME280;11173;51.050;7.108;2022-10-16T19:38:12;99678.09;;;15.89;67.82
22018;BME280;11173;51.050;7.108;2022-10-16T19:43:12;99668.69;;;15.83;67.69
22018;BME280;11173;51.050;7.108;2022-10-16T19:48:12;99675.19;;;15.80;67.76
22018;BME280;11173;51.050;7.108;2022-10-16T19:53:13;99684.41;;;15.81;67.31
22018;BME280;11173;51.050;7.108;2022-10-16T19:58:13;99682.94;;;15.76;67.69
22018;BME280;11173;51.050;7.108;2022-10-16T20:03:13;99691.59;;;15.69;67.32
22018;BME280;11173;51.050;7.108;2022-10-16T20:08:14;99700.63;;;15.64;68.04
22018;BME280;11173;51.050;7.108;2022-10-16T20:13:14;99698.50;;;15.55;69.11
22018;BME280;11173;51.050;7.108;2022-10-16T20:18:15;99690.69;;;15.50;69.12
22018;BME280;11173;51.050;7.108;2022-10-16T20:23:17;99700.41;;;15.58;68.32
22018;BME280;11173;51.050;7.108;2022-10-16T20:28:19;99696.94;;;15.54;68.23
22018;BME280;11173;51.050;7.108;2022-10-16T20:33:20;99690.59;;;15.41;69.11
22018;BME280;11173;51.050;7.108;2022-10-16T20:38:20;99694.97;;;15.29;69.65
22018;BME280;11173;51.050;7.108;2022-10-16T20:43:20;99696.34;;;15.24;69.73
22018;BME280;11173;51.050;7.108;2022-10-16T20:48:21;99692.53;;;15.18;70.81
22018;BME280;11173;51.050;7.108;2022-10-16T20:53:21;99686.59;;;15.16;71.24
22018;BME280;11173;51.050;7.108;2022-10-16T20:58:22;99686.50;;;15.20;72.09
22018;BME280;11173;51.050;7.108;2022-10-16T21:03:22;99676.59;;;15.15;71.76
22018;BME280;11173;51.050;7.108;2022-10-16T21:08:22;99673.34;;;15.17;71.94
22018;BME280;11173;51.050;7.108;2022-10-16T21:13:23;99687.97;;;15.11;72.63
22018;BME280;11173;51.050;7.108;2022-10-16T21:18:23;99681.69;;;15.07;71.72
22018;BME280;11173;51.050;7.108;2022-10-16T21:23:24;99689.53;;;15.00;72.60
22018;BME280;11173;51.050;7.108;2022-10-16T21:28:24;99697.41;;;14.92;73.02
22018;BME280;11173;51.050;7.108;2022-10-16T21:33:25;99692.81;;;14.85;73.76
22018;BME280;11173;51.050;7.108;2022-10-16T21:38:25;99688.06;;;14.82;74.13
22018;BME280;11173;51.050;7.108;2022-10-16T21:43:26;99692.09;;;14.81;74.39
22018;BME280;11173;51.050;7.108;2022-10-16T21:48:26;99679.88;;;14.75;75.85
22018;BME280;11173;51.050;7.108;2022-10-16T21:53:27;99691.56;;;14.74;75.74
22018;BME280;11173;51.050;7.108;2022-10-16T21:58:30;99688.06;;;14.69;75.50
22018;BME280;11173;51.050;7.108;2022-10-16T22:03:30;99698.72;;;14.75;75.93
22018;BME280;11173;51.050;7.108;2022-10-16T22:08:31;99703.22;;;14.72;76.47
22018;BME280;11173;51.050;7.108;2022-10-16T22:13:34;99696.00;;;14.71;76.33
22018;BME280;11173;51.050;7.108;2022-10-16T22:18:35;99695.25;;;14.70;75.72
22018;BME280;11173;51.050;7.108;2022-10-16T22:23:36;99687.28;;;14.69;75.20
22018;BME280;11173;51.050;7.108;2022-10-16T22:28:37;99688.50;;;14.68;75.18
22018;BME280;11173;51.050;7.108;2022-10-16T22:33:38;99687.84;;;14.64;75.41
22018;BME280;11173;51.050;7.108;2022-10-16T22:38:39;99691.53;;;14.61;76.31
22018;BME280;11173;51.050;7.108;2022-10-16T22:43:43;99687.63;;;14.58;77.11
22018;BME280;11173;51.050;7.108;2022-10-16T22:48:44;99677.75;;;14.54;77.86
22018;BME280;11173;51.050;7.108;2022-10-16T22:53:46;99670.91;;;14.55;77.89
22018;BME280;11173;51.050;7.108;2022-10-16T22:58:47;99666.19;;;14.51;78.34
22018;BME280;11173;51.050;7.108;2022-10-16T23:03:48;99665.88;;;14.49;78.30
22018;BME280;11173;51.050;7.108;2022-10-16T23:08:52;99666.41;;;14.57;78.59
22018;BME280;11173;51.050;7.108;2022-10-16T23:13:53;99663.50;;;14.61;77.71
22018;BME280;11173;51.050;7.108;2022-10-16T23:18:54;99676.53;;;14.67;77.59
22018;BME280;11173;51.050;7.108;2022-10-16T23:23:54;99667.53;;;14.60;78.01
22018;BME280;11173;51.050;7.108;2022-10-16T23:28:56;99687.75;;;14.67;77.59
22018;BME280;11173;51.050;7.108;2022-10-16T23:33:57;99681.66;;;14.69;76.95
22018;BME280;11173;51.050;7.108;2022-10-16T23:38:58;99683.25;;;14.70;76.64
22018;BME280;11173;51.050;7.108;2022-10-16T23:43:58;99699.50;;;14.75;76.80
22018;BME280;11173;51.050;7.108;2022-10-16T23:48:59;99695.47;;;14.76;76.51
22018;BME280;11173;51.050;7.108;2022-10-16T23:53:59;99701.41;;;14.78;76.43
22018;BME280;11173;51.050;7.108;2022-10-16T23:58:59;99699.28;;;14.82;76.45
